Terminal Aerodrome Forecast
Issued by NWS New Orleans/Baton Rouge, LA

Home | Current Version | Previous Version | Text Only | Print | Product List | Glossary On
Versions: 1 2 3 4 5 6 7 8 9 10 11 12
000
FTUS44 KLIX 261729
TAFBTR
TAF
KBTR 261729Z 2618/2718 00000KT P6SM SCT040
      TEMPO 2620/2624 35020G32KT 1SM TSRA BKN025CB
     FM270000 32004KT P6SM SCT090 BKN200
     FM271200 VRB03KT P6SM BKN030
     FM271600 01005KT P6SM BKN050=

USA.gov is the U.S. government's official web portal to all federal, state and local government web resources and services.